createdAt,value
2018-08-30T00:02:43.781Z,68.41
2018-08-30T00:05:49.142Z,67.66
2018-08-30T00:08:54.526Z,67.28
2018-08-30T00:12:00.034Z,66.94
2018-08-30T00:15:06.163Z,68.51
2018-08-30T00:18:11.898Z,68.37
2018-08-30T00:21:17.457Z,68.38
2018-08-30T00:24:22.859Z,68.43
2018-08-30T00:27:28.257Z,69.67
2018-08-30T00:30:33.702Z,69.14
2018-08-30T00:33:39.230Z,70.26
2018-08-30T00:36:44.633Z,70.77
2018-08-30T00:39:50.075Z,73.06
2018-08-30T00:42:55.446Z,72.63
2018-08-30T00:46:00.833Z,72.95
2018-08-30T00:49:06.215Z,73.02
2018-08-30T00:52:11.598Z,73.32
2018-08-30T00:55:16.962Z,73.97
2018-08-30T00:58:22.331Z,74.18
2018-08-30T01:01:28.118Z,74.40
2018-08-30T01:04:33.510Z,74.63
2018-08-30T01:07:38.864Z,74.39
2018-08-30T01:10:44.510Z,75.11
2018-08-30T01:13:49.876Z,74.74
2018-08-30T01:16:55.288Z,75.31
2018-08-30T01:20:00.729Z,75.84
2018-08-30T01:23:06.470Z,75.62
2018-08-30T01:26:11.869Z,75.75
2018-08-30T01:29:17.342Z,75.39
2018-08-30T01:32:22.721Z,75.60
2018-08-30T01:35:28.624Z,75.14
2018-08-30T01:38:34.389Z,74.96
2018-08-30T01:41:41.360Z,75.97
2018-08-30T01:44:46.751Z,74.97
2018-08-30T01:47:52.466Z,75.16
2018-08-30T01:50:57.961Z,74.84
2018-08-30T01:54:03.349Z,75.26
2018-08-30T01:57:08.762Z,75.04
2018-08-30T02:00:14.232Z,73.96
2018-08-30T02:03:19.728Z,74.43
2018-08-30T02:06:25.700Z,72.95
2018-08-30T02:09:31.249Z,73.34
2018-08-30T02:12:36.625Z,73.71
2018-08-30T02:15:42.014Z,72.83
2018-08-30T02:18:47.409Z,72.99
2018-08-30T02:21:52.818Z,73.80
2018-08-30T02:24:58.225Z,74.18
2018-08-30T02:28:03.614Z,74.12
2018-08-30T02:31:09.042Z,74.14
2018-08-30T02:34:14.442Z,75.56
2018-08-30T02:37:20.169Z,76.53
2018-08-30T02:40:25.650Z,77.08
2018-08-30T02:43:31.270Z,77.37
2018-08-30T02:46:36.650Z,78.29
2018-08-30T02:49:42.089Z,79.62
2018-08-30T02:52:47.442Z,80.21
2018-08-30T02:55:52.825Z,79.78
2018-08-30T02:58:58.678Z,81.64
2018-08-30T03:02:04.128Z,81.89
2018-08-30T03:05:09.578Z,83.25
2018-08-30T03:08:14.938Z,83.26
2018-08-30T03:11:20.433Z,83.38
2018-08-30T03:14:25.844Z,84.47
2018-08-30T03:17:31.213Z,84.98
2018-08-30T03:20:36.710Z,85.70
2018-08-30T03:23:42.126Z,85.66
2018-08-30T03:26:47.555Z,86.42
2018-08-30T03:29:53.006Z,86.07
2018-08-30T03:32:58.370Z,86.79
2018-08-30T03:36:03.749Z,86.61
2018-08-30T03:39:09.165Z,87.65
2018-08-30T03:42:14.530Z,88.36
2018-08-30T03:45:19.915Z,88.39
2018-08-30T03:48:25.281Z,88.46
2018-08-30T03:51:30.933Z,88.76
2018-08-30T03:54:36.483Z,88.54
2018-08-30T03:57:42.565Z,88.90
2018-08-30T04:00:48.083Z,90.17
2018-08-30T04:03:53.553Z,90.76
2018-08-30T04:06:59.521Z,91.61
2018-08-30T04:10:05.034Z,91.44
2018-08-30T04:13:10.414Z,91.10
2018-08-30T04:16:15.801Z,91.42
2018-08-30T04:19:21.246Z,91.76
2018-08-30T04:22:26.709Z,91.17
2018-08-30T04:25:32.090Z,91.51
2018-08-30T04:28:37.553Z,91.52
2018-08-30T04:31:54.615Z,91.78
2018-08-30T04:35:00.058Z,91.72
2018-08-30T04:38:07.669Z,91.95
2018-08-30T04:41:13.581Z,91.76
2018-08-30T04:44:18.968Z,91.77
2018-08-30T04:47:25.474Z,91.21
2018-08-30T04:50:31.109Z,91.44
2018-08-30T04:53:37.026Z,91.80
2018-08-30T04:56:45.822Z,91.21
2018-08-30T04:59:51.305Z,90.82
2018-08-30T05:02:57.030Z,91.96
2018-08-30T05:06:05.466Z,92.07
2018-08-30T05:09:12.126Z,91.43
2018-08-30T05:12:17.509Z,91.14
2018-08-30T05:15:23.214Z,91.91
2018-08-30T05:18:28.623Z,91.87
2018-08-30T05:21:34.350Z,91.96
2018-08-30T05:24:40.146Z,92.07
2018-08-30T05:27:45.961Z,92.20
2018-08-30T05:30:51.437Z,92.06
2018-08-30T05:33:56.802Z,92.63
2018-08-30T05:37:02.169Z,92.96
2018-08-30T05:40:08.207Z,92.06
2018-08-30T05:43:13.582Z,92.56
2018-08-30T05:46:19.006Z,92.34
2018-08-30T05:49:24.991Z,92.39
2018-08-30T05:52:30.477Z,92.63
2018-08-30T05:55:35.822Z,92.73
2018-08-30T05:58:41.226Z,91.94
2018-08-30T06:01:46.721Z,91.81
2018-08-30T06:04:52.363Z,92.34
2018-08-30T06:07:57.809Z,91.77
2018-08-30T06:11:03.242Z,91.53
2018-08-30T06:14:08.631Z,91.74
2018-08-30T06:17:14.014Z,92.93
2018-08-30T06:20:19.443Z,91.59
2018-08-30T06:23:24.834Z,92.84
2018-08-30T06:26:30.209Z,93.25
2018-08-30T06:29:35.643Z,93.09
2018-08-30T06:32:41.079Z,92.33
2018-08-30T06:35:46.595Z,92.95
2018-08-30T06:38:52.350Z,92.72
2018-08-30T06:41:57.969Z,93.14
2018-08-30T06:45:03.374Z,92.84
2018-08-30T06:48:08.745Z,90.60
2018-08-30T06:51:14.482Z,91.42
2018-08-30T06:54:19.885Z,91.50
2018-08-30T06:57:25.291Z,90.71
2018-08-30T07:00:30.889Z,91.12
2018-08-30T07:03:36.261Z,90.69
2018-08-30T07:06:41.617Z,90.45
2018-08-30T07:09:47.285Z,90.69
2018-08-30T07:12:54.910Z,91.00
2018-08-30T07:16:00.768Z,90.25
2018-08-30T07:19:06.566Z,90.58
2018-08-30T07:22:11.973Z,90.40
2018-08-30T07:25:17.778Z,89.96
2018-08-30T07:28:23.212Z,89.42
2018-08-30T07:31:28.832Z,89.31
2018-08-30T07:34:34.268Z,89.36
2018-08-30T07:37:39.916Z,89.73
2018-08-30T07:40:45.418Z,89.63
2018-08-30T07:43:50.926Z,89.94
2018-08-30T07:46:56.291Z,89.70
2018-08-30T07:50:01.803Z,89.39
2018-08-30T07:53:07.377Z,89.29
2018-08-30T07:56:12.762Z,89.63
2018-08-30T07:59:18.206Z,89.90
2018-08-30T08:02:23.580Z,89.99
2018-08-30T08:05:29.024Z,89.28
2018-08-30T08:08:34.422Z,89.26
2018-08-30T08:11:39.861Z,89.05
2018-08-30T08:14:45.251Z,89.05
2018-08-30T08:17:51.270Z,89.20
2018-08-30T08:20:56.652Z,90.07
2018-08-30T08:24:02.080Z,89.83
2018-08-30T08:27:07.825Z,89.66
2018-08-30T08:30:13.229Z,88.80
2018-08-30T08:33:18.626Z,89.31
2018-08-30T08:36:23.981Z,88.83
2018-08-30T08:39:30.096Z,89.95
2018-08-30T08:42:35.461Z,89.21
2018-08-30T08:45:40.857Z,88.29
2018-08-30T08:48:46.249Z,88.88
2018-08-30T08:51:51.633Z,88.93
2018-08-30T08:54:57.031Z,89.92
2018-08-30T08:58:02.417Z,90.45
2018-08-30T09:01:08.577Z,89.48
2018-08-30T09:04:13.982Z,89.61
2018-08-30T09:07:19.564Z,88.58
2018-08-30T09:10:25.595Z,89.26
2018-08-30T09:13:31.234Z,88.83
2018-08-30T09:16:37.609Z,88.76
2018-08-30T09:19:43.018Z,87.80
2018-08-30T09:22:48.489Z,88.19
2018-08-30T09:25:53.902Z,87.74
2018-08-30T09:28:59.312Z,88.54
2018-08-30T09:32:04.730Z,88.53
2018-08-30T09:35:10.130Z,87.66
2018-08-30T09:38:16.689Z,88.67
2018-08-30T09:41:22.221Z,88.40
2018-08-30T09:44:27.709Z,89.11
2018-08-30T09:47:33.089Z,89.11
2018-08-30T09:50:39.045Z,89.04
2018-08-30T09:53:44.444Z,88.29
2018-08-30T09:56:54.990Z,87.85
2018-08-30T10:00:00.609Z,87.44
2018-08-30T10:03:06.418Z,87.17
2018-08-30T10:06:11.838Z,87.03
2018-08-30T10:09:17.249Z,87.98
2018-08-30T10:12:22.613Z,87.04
2018-08-30T10:15:28.000Z,85.65
2018-08-30T10:18:33.395Z,85.58
2018-08-30T10:21:38.828Z,85.67
2018-08-30T10:24:44.785Z,84.96
2018-08-30T10:27:50.137Z,85.40
2018-08-30T10:30:55.570Z,85.70
2018-08-30T10:34:00.953Z,84.73
2018-08-30T10:37:06.627Z,84.12
2018-08-30T10:40:12.205Z,84.37
2018-08-30T10:43:17.558Z,84.26
2018-08-30T10:46:23.553Z,84.60
2018-08-30T10:49:29.032Z,85.21
2018-08-30T10:52:34.534Z,85.91
2018-08-30T10:55:40.279Z,86.27
2018-08-30T10:58:46.026Z,85.45
2018-08-30T11:01:51.498Z,85.91
2018-08-30T11:04:57.165Z,86.57
2018-08-30T11:08:02.705Z,86.74
2018-08-30T11:11:08.470Z,85.13
2018-08-30T11:14:13.826Z,85.10
2018-08-30T11:17:19.193Z,85.76
2018-08-30T11:20:24.666Z,85.04
2018-08-30T11:23:30.066Z,86.29
2018-08-30T11:26:35.557Z,85.17
2018-08-30T11:29:41.157Z,85.93
2018-08-30T11:32:46.550Z,85.39
2018-08-30T11:35:51.974Z,85.06
2018-08-30T11:38:57.368Z,85.94
2018-08-30T11:42:03.170Z,86.51
2018-08-30T11:45:09.433Z,86.04
2018-08-30T11:48:14.802Z,86.11
2018-08-30T11:51:20.226Z,85.34
2018-08-30T11:54:25.611Z,85.13
2018-08-30T11:57:31.026Z,85.39
2018-08-30T12:00:36.432Z,85.23
2018-08-30T12:03:44.926Z,85.38
2018-08-30T12:06:50.787Z,85.33
2018-08-30T12:09:56.846Z,84.35
2018-08-30T12:13:02.267Z,83.60
2018-08-30T12:16:07.669Z,82.67
2018-08-30T12:19:13.043Z,83.34
2018-08-30T12:22:18.502Z,82.87
2018-08-30T12:25:23.937Z,83.07
2018-08-30T12:28:30.035Z,83.39
2018-08-30T12:31:35.747Z,81.90
2018-08-30T12:34:41.311Z,81.20
2018-08-30T12:37:46.830Z,82.79
2018-08-30T12:40:52.434Z,82.36
2018-08-30T12:43:57.799Z,82.26
2018-08-30T12:47:03.437Z,81.64
2018-08-30T12:50:09.105Z,81.97
2018-08-30T12:53:14.721Z,82.32
2018-08-30T12:56:20.278Z,82.50
2018-08-30T12:59:31.094Z,83.17
2018-08-30T13:02:36.740Z,82.70
2018-08-30T13:05:42.392Z,83.46
2018-08-30T13:08:48.139Z,85.95
2018-08-30T13:11:53.807Z,85.40
2018-08-30T13:14:59.492Z,85.69
2018-08-30T13:18:05.451Z,84.39
2018-08-30T13:21:11.070Z,84.48
2018-08-30T13:24:16.726Z,85.28
2018-08-30T13:27:22.318Z,84.32
2018-08-30T13:30:28.185Z,84.34
2018-08-30T13:33:33.749Z,84.78
2018-08-30T13:36:39.208Z,83.99
2018-08-30T13:39:45.000Z,83.16
2018-08-30T13:42:50.611Z,82.86
2018-08-30T13:45:56.247Z,81.58
2018-08-30T13:49:02.458Z,81.05
2018-08-30T13:52:08.080Z,80.80
2018-08-30T13:55:14.182Z,79.86
2018-08-30T13:58:19.947Z,78.99
2018-08-30T14:01:25.664Z,79.18
2018-08-30T14:04:30.996Z,78.75
2018-08-30T14:07:36.683Z,77.88
2018-08-30T14:10:42.398Z,76.97
2018-08-30T14:13:47.988Z,76.50
2018-08-30T14:16:53.365Z,75.47
2018-08-30T14:19:58.834Z,74.99
2018-08-30T14:23:04.766Z,74.92
2018-08-30T14:26:10.234Z,75.02
2018-08-30T14:29:15.979Z,74.81
2018-08-30T14:32:21.459Z,72.74
2018-08-30T14:35:26.813Z,74.05
2018-08-30T14:38:32.193Z,72.79
2018-08-30T14:41:37.974Z,72.76
2018-08-30T14:44:43.494Z,72.38
2018-08-30T14:47:48.945Z,71.99
2018-08-30T14:50:54.850Z,71.46
2018-08-30T14:54:00.326Z,72.57
2018-08-30T14:57:06.545Z,71.74
2018-08-30T15:00:12.050Z,72.41
2018-08-30T15:03:17.650Z,72.15
2018-08-30T15:06:23.018Z,71.26
2018-08-30T15:09:28.417Z,70.94
2018-08-30T15:12:33.892Z,71.29
2018-08-30T15:15:39.386Z,70.61
2018-08-30T15:18:44.824Z,71.05
2018-08-30T15:21:50.190Z,70.89
2018-08-30T15:24:56.116Z,70.91
2018-08-30T15:28:01.499Z,69.57
2018-08-30T15:31:07.029Z,69.08
2018-08-30T15:34:12.418Z,70.37
2018-08-30T15:37:17.784Z,70.03
2018-08-30T15:40:23.206Z,70.15
2018-08-30T15:43:28.831Z,69.86
2018-08-30T15:46:34.219Z,68.01
2018-08-30T15:49:39.627Z,69.78
2018-08-30T15:52:45.125Z,69.16
2018-08-30T15:55:50.730Z,68.46
2018-08-30T15:58:56.636Z,66.51
2018-08-30T16:02:02.043Z,66.28
2018-08-30T16:05:08.115Z,66.25
2018-08-30T16:08:14.018Z,66.55
2018-08-30T16:11:19.406Z,66.77
2018-08-30T16:14:25.031Z,65.86
2018-08-30T16:17:30.585Z,65.57
2018-08-30T16:20:36.280Z,65.81
2018-08-30T16:23:41.685Z,64.87
2018-08-30T16:26:47.109Z,64.25
2018-08-30T16:29:52.741Z,61.17
2018-08-30T16:33:00.466Z,61.04
2018-08-30T16:36:05.897Z,60.17
2018-08-30T16:39:12.238Z,59.76
2018-08-30T16:42:17.585Z,58.83
2018-08-30T16:45:22.961Z,56.75
2018-08-30T16:48:28.873Z,57.67
2018-08-30T16:51:34.270Z,57.18
2018-08-30T16:54:40.120Z,57.89
2018-08-30T16:57:45.579Z,56.36
2018-08-30T17:00:51.328Z,56.57
2018-08-30T17:03:56.935Z,57.93
2018-08-30T17:07:02.542Z,57.73
2018-08-30T17:10:08.002Z,58.04
2018-08-30T17:13:13.360Z,58.34
2018-08-30T17:16:18.727Z,58.17
2018-08-30T17:19:30.909Z,58.00
2018-08-30T17:22:36.361Z,58.01
2018-08-30T17:25:42.988Z,58.07
2018-08-30T17:28:48.697Z,59.11
2018-08-30T17:31:54.442Z,59.15
2018-08-30T17:34:59.833Z,59.18
2018-08-30T17:38:05.242Z,60.24
2018-08-30T17:41:10.650Z,60.05
2018-08-30T17:44:16.001Z,60.49
2018-08-30T17:47:21.380Z,60.54
2018-08-30T17:50:26.841Z,60.36
2018-08-30T17:53:32.369Z,60.38
2018-08-30T17:56:37.945Z,61.49
2018-08-30T17:59:43.612Z,61.29
2018-08-30T18:02:49.014Z,61.77
2018-08-30T18:05:54.386Z,61.96
2018-08-30T18:08:59.746Z,61.93
2018-08-30T18:12:05.393Z,62.11
2018-08-30T18:15:13.894Z,62.78
2018-08-30T18:18:19.861Z,62.85
2018-08-30T18:21:25.486Z,64.25
2018-08-30T18:24:30.938Z,64.39
2018-08-30T18:27:36.353Z,64.22
2018-08-30T18:30:41.814Z,65.56
2018-08-30T18:33:47.571Z,65.73
2018-08-30T18:36:52.941Z,65.51
2018-08-30T18:39:58.335Z,66.07
2018-08-30T18:43:03.715Z,66.22
2018-08-30T18:46:09.167Z,66.11
2018-08-30T18:49:14.609Z,66.52
2018-08-30T18:52:20.088Z,65.73
2018-08-30T18:55:25.483Z,66.18
2018-08-30T18:58:30.862Z,67.02
2018-08-30T19:01:36.502Z,67.50
2018-08-30T19:04:41.925Z,67.40
2018-08-30T19:07:47.906Z,67.17
2018-08-30T19:10:53.442Z,68.19
2018-08-30T19:13:58.822Z,68.37
2018-08-30T19:17:09.414Z,68.04
2018-08-30T19:20:14.798Z,68.28
2018-08-30T19:23:20.215Z,68.54
2018-08-30T19:26:25.605Z,68.26
2018-08-30T19:29:35.099Z,68.38
2018-08-30T19:32:40.579Z,68.72
2018-08-30T19:35:51.146Z,68.25
2018-08-30T19:38:56.882Z,68.35
2018-08-30T19:42:02.284Z,68.15
2018-08-30T19:45:07.693Z,68.04
2018-08-30T19:48:13.146Z,68.13
2018-08-30T19:51:18.630Z,69.22
2018-08-30T19:54:25.339Z,68.78
2018-08-30T19:57:43.463Z,68.54
2018-08-30T20:00:48.954Z,69.00
2018-08-30T20:03:54.343Z,69.08
2018-08-30T20:06:59.709Z,69.75
2018-08-30T20:10:05.557Z,69.53
2018-08-30T20:13:10.937Z,69.95
2018-08-30T20:16:16.272Z,69.76
2018-08-30T20:19:21.671Z,69.45
2018-08-30T20:22:27.112Z,70.26
2018-08-30T20:25:32.452Z,69.70
2018-08-30T20:28:37.813Z,69.60
2018-08-30T20:31:43.261Z,70.06
2018-08-30T20:34:48.606Z,70.44
2018-08-30T20:37:56.114Z,69.82
2018-08-30T20:41:01.538Z,70.31
2018-08-30T20:44:07.138Z,69.85
2018-08-30T20:47:12.513Z,70.27
2018-08-30T20:50:17.985Z,70.09
2018-08-30T20:53:23.891Z,70.89
2018-08-30T20:56:29.453Z,70.52
2018-08-30T20:59:35.006Z,70.37
2018-08-30T21:02:40.654Z,70.13
2018-08-30T21:05:45.993Z,70.61
2018-08-30T21:08:51.481Z,70.11
2018-08-30T21:11:56.950Z,70.18
2018-08-30T21:15:02.330Z,70.59
2018-08-30T21:18:09.102Z,70.93
2018-08-30T21:21:16.569Z,70.92
2018-08-30T21:24:24.217Z,71.04
2018-08-30T21:27:31.001Z,70.97
2018-08-30T21:30:37.866Z,70.80
2018-08-30T21:33:47.484Z,70.98
2018-08-30T21:36:52.882Z,71.12
2018-08-30T21:39:58.299Z,70.82
2018-08-30T21:43:05.471Z,71.12
2018-08-30T21:46:15.015Z,71.71
2018-08-30T21:49:24.509Z,71.80
2018-08-30T21:52:32.760Z,72.27
2018-08-30T21:55:41.845Z,71.87
2018-08-30T21:58:48.208Z,72.09
2018-08-30T22:01:55.022Z,71.34
2018-08-30T22:05:03.894Z,72.35
2018-08-30T22:08:23.732Z,72.47
2018-08-30T22:11:33.140Z,71.97
2018-08-30T22:14:39.984Z,72.48
2018-08-30T22:17:46.894Z,72.92
2018-08-30T22:20:57.653Z,72.71
2018-08-30T22:24:05.032Z,73.18
2018-08-30T22:27:13.824Z,72.70
2018-08-30T22:30:20.473Z,73.16
2018-08-30T22:33:29.444Z,73.60
2018-08-30T22:36:36.529Z,72.78
2018-08-30T22:39:43.303Z,73.08
2018-08-30T22:43:02.844Z,73.74
2018-08-30T22:46:09.738Z,73.50
2018-08-30T22:49:19.915Z,73.77
2018-08-30T22:52:28.391Z,73.05
2018-08-30T22:55:48.395Z,73.73
2018-08-30T22:58:58.742Z,73.86
2018-08-30T23:02:08.879Z,73.52
2018-08-30T23:05:15.126Z,73.42
2018-08-30T23:08:20.554Z,73.64
2018-08-30T23:11:25.926Z,73.83
2018-08-30T23:14:31.282Z,73.71
2018-08-30T23:17:36.597Z,75.62
2018-08-30T23:20:42.010Z,74.88
2018-08-30T23:23:47.410Z,74.62
2018-08-30T23:26:52.778Z,74.79
2018-08-30T23:29:58.266Z,76.45
2018-08-30T23:33:03.609Z,75.40
2018-08-30T23:36:09.006Z,74.71
2018-08-30T23:39:14.493Z,75.65
2018-08-30T23:42:19.841Z,75.27
2018-08-30T23:45:25.214Z,76.56
2018-08-30T23:48:30.549Z,75.76
2018-08-30T23:51:35.974Z,76.15
2018-08-30T23:54:41.365Z,76.40
2018-08-30T23:58:03.586Z,75.99
